Aviation Digital Data Service (ADDS)

Output produced by TAFs form (1050 UTC 16 July 2018)
found at http://www.aviationweather.gov/adds/tafs/
 
METAR text: UTTT 161030Z 31006KT 240V360 CAVOK 37/06 Q0999 R26R/CLRD70 NOSIG
Conditions at: UTTT (TASKENT/YUZNI , UZ) observed 1030 UTC 16 July 2018
Temperature: 37.0°C (99°F)
Dewpoint: 6.0°C (43°F) [RH = 15%]
Pressure (altimeter): 29.50 inches Hg (999.0 mb)
Winds: from the NW (310 degrees) at 7 MPH (6 knots; 3.1 m/s)
Visibility: 6 or more miles (10+ km)
Ceiling: ceiling and visibility are OK
Clouds: unknown
Weather: no significant weather observed at this time

Forecast for: UTTT (TASKENT/YUZNI , UZ)
Text: TAF UTTT 160500Z 1606/1706 21008KT CAVOK TX39/1610Z
Forecast period: 0600 UTC 16 July 2018 to 0600 UTC 17 July 2018
Forecast type: FROM: standard forecast or significant change
Winds: from the SSW (210 degrees) at 9 MPH (8 knots; 4.2 m/s)
Visibility: 6 or more miles (10+ km)
Clouds: not forecast
Weather: no significant weather forecast for this period
Text: TEMPO 1608/1614 35012G22KT
Forecast period: 0800 to 1400 UTC 16 July 2018
Forecast type: TEMPORARY: The following changes expected for less than half the time period
Winds: from the N (350 degrees) at 14 MPH (12 knots; 6.2 m/s)
gusting to 25 MPH (22 knots; 11.4 m/s)
Weather: no significant weather forecast for this period